Time;durP1;ratioP1;P1;durP2;ratioP2;P2;SDS_P1;SDS_P2;PMS_P1;PMS_P2;Temp;Humidity;BMP_temperature;BMP_pressure;BME280_temperature;BME280_humidity;BME280_pressure;Samples;Min_cycle;Max_cycle;Signal;HPM_P1;HPM_P2
2023/08/10 00:00:08;;;;;;;;;;;;;;;;;;5032931;28;19925;-67
2023/08/10 00:02:35;;;;;;;;;;;;;;;;;;5031504;28;20347;-67
2023/08/10 00:05:02;;;;;;;;;;;;;;;;;;5031022;28;19929;-67
2023/08/10 00:07:29;;;;;;;;;;;;;;;;;;5032817;28;19925;-66
2023/08/10 00:09:57;;;;;;;;;;;;;;;;;;5034428;28;20022;-67
2023/08/10 00:12:24;;;;;;;;;;;;;;;;;;5033208;28;19933;-67
2023/08/10 00:14:51;;;;;;;;;;;;;;;;;;5031919;28;19987;-67
2023/08/10 00:17:18;;;;;;;;;;;;;;;;;;5027704;28;19929;-67
2023/08/10 00:19:45;;;;;;;;;;;;;;;;;;5023434;28;19972;-67
2023/08/10 00:22:12;;;;;;;;;;;;;;;;;;5030581;28;19925;-67
2023/08/10 00:24:39;;;;;;;;;;;;;;;;;;5034163;28;20484;-67
2023/08/10 00:27:06;;;;;;;;;;;;;;;;;;5031029;28;19979;-67
2023/08/10 00:29:33;;;;;;;;;;;;;;;;;;5029812;28;19976;-67
2023/08/10 00:32:00;;;;;;;;;;;;;;;;;;5032205;28;19929;-67
2023/08/10 00:34:27;;;;;;;;;;;;;;;;;;5030942;28;19972;-67
2023/08/10 00:36:54;;;;;;;;;;;;;;;;;;5032515;28;20526;-67
2023/08/10 00:39:21;;;;;;;;;;;;;;;;;;5033476;28;20052;-67
2023/08/10 00:41:48;;;;;;;;;;;;;;;;;;5032159;28;19964;-67
2023/08/10 00:44:16;;;;;;;;;;;;;;;;;;5033287;28;19932;-67
2023/08/10 00:46:43;;;;;;;;;;;;;;;;;;5032906;28;20016;-67
2023/08/10 00:49:10;;;;;;;;;;;;;;;;;;5028683;28;19925;-67
2023/08/10 00:51:37;;;;;;;;;;;;;;;;;;5031120;28;19971;-68
2023/08/10 00:54:04;;;;;;;;;;;;;;;;;;5031388;28;19956;-68
2023/08/10 00:56:31;;;;;;;;;;;;;;;;;;5031572;28;19952;-68
2023/08/10 00:58:58;;;;;;;;;;;;;;;;;;5029801;28;19945;-68
2023/08/10 01:01:25;;;;;;;;;;;;;;;;;;5030686;28;19952;-66
2023/08/10 01:03:52;;;;;;;;;;;;;;;;;;5028480;28;19931;-66
2023/08/10 01:06:20;;;;;;;;;;;;;;;;;;5030966;28;20322;-67
2023/08/10 01:08:47;;;;;;;;;;;;;;;;;;5033057;28;19925;-66
2023/08/10 01:11:14;;;;;;;;;;;;;;;;;;5028067;28;19929;-66
2023/08/10 01:13:42;;;;;;;;;;;;;;;;;;5032240;28;19926;-66
2023/08/10 01:16:10;;;;;;;;;;;;;;;;;;5027549;28;19948;-66
2023/08/10 01:18:37;;;;;;;;;;;;;;;;;;5030144;28;20288;-67
2023/08/10 01:21:04;;;;;;;;;;;;;;;;;;5015749;28;19925;-66
2023/08/10 01:23:31;;;;;;;;;;;;;;;;;;5021369;28;19991;-66
2023/08/10 01:25:58;;;;;;;;;;;;;;;;;;5032251;28;19925;-66
2023/08/10 01:28:25;;;;;;;;;;;;;;;;;;5031310;28;19929;-67
2023/08/10 01:30:52;;;;;;;;;;;;;;;;;;5030588;28;19971;-66
2023/08/10 01:33:19;;;;;;;;;;;;;;;;;;5031077;28;19925;-67
2023/08/10 01:35:46;;;;;;;;;;;;;;;;;;5032373;28;20331;-66
2023/08/10 01:38:13;;;;;;;;;;;;;;;;;;5030626;28;19979;-67
2023/08/10 01:40:40;;;;;;;;;;;;;;;;;;5033091;28;19955;-67
2023/08/10 01:43:07;;;;;;;;;;;;;;;;;;5030076;28;19929;-66
2023/08/10 01:45:34;;;;;;;;;;;;;;;;;;5030985;28;19929;-66
2023/08/10 01:48:01;;;;;;;;;;;;;;;;;;5029946;28;19960;-66
2023/08/10 01:50:29;;;;;;;;;;;;;;;;;;5028408;28;20426;-67
2023/08/10 01:52:56;;;;;;;;;;;;;;;;;;5030184;28;20285;-67
2023/08/10 01:55:23;;;;;;;;;;;;;;;;;;5030742;28;19929;-67
2023/08/10 01:57:50;;;;;;;;;;;;;;;;;;5031411;28;20388;-67
2023/08/10 02:00:17;;;;;;;;;;;;;;;;;;5030200;28;20438;-67
2023/08/10 02:02:44;;;;;;;;;;;;;;;;;;5027836;28;19929;-67
2023/08/10 02:05:11;;;;;;;;;;;;;;;;;;5027500;28;19925;-67
2023/08/10 02:07:38;;;;;;;;;;;;;;;;;;5031491;28;19925;-67
2023/08/10 02:10:05;;;;;;;;;;;;;;;;;;5031635;28;19929;-67
2023/08/10 02:12:32;;;;;;;;;;;;;;;;;;5032884;28;19929;-67
2023/08/10 02:14:59;;;;;;;;;;;;;;;;;;5031887;28;19925;-67
2023/08/10 02:17:28;;;;;;;;;;;;;;;;;;5027762;28;19925;-68
2023/08/10 02:19:56;;;;;;;;;;;;;;;;;;5023663;28;19960;-67
2023/08/10 02:22:23;;;;;;;;;;;;;;;;;;5031399;28;19932;-67
2023/08/10 02:24:51;;;;;;;;;;;;;;;;;;5032056;28;19980;-67
2023/08/10 02:27:18;;;;;;;;;;;;;;;;;;5029615;28;19971;-68
2023/08/10 02:29:45;;;;;;;;;;;;;;;;;;5029852;28;19929;-68
2023/08/10 02:32:16;;;;;;;;;;;;;;;;;;5031195;28;19925;-68
2023/08/10 02:34:43;;;;;;;;;;;;;;;;;;5028788;28;19925;-68
2023/08/10 02:37:10;;;;;;;;;;;;;;;;;;5028579;28;20351;-68
2023/08/10 02:39:39;;;;;;;;;;;;;;;;;;5030212;28;19926;-68
2023/08/10 02:42:06;;;;;;;;;;;;;;;;;;5032439;28;19980;-68
2023/08/10 02:44:34;;;;;;;;;;;;;;;;;;5030568;28;19986;-68
2023/08/10 02:47:01;;;;;;;;;;;;;;;;;;5030762;28;20264;-68
2023/08/10 02:49:28;;;;;;;;;;;;;;;;;;5029910;28;19925;-66
2023/08/10 02:51:55;;;;;;;;;;;;;;;;;;5029966;28;19925;-69
2023/08/10 02:54:22;;;;;;;;;;;;;;;;;;5031353;28;20361;-67
2023/08/10 02:56:49;;;;;;;;;;;;;;;;;;5029903;28;20020;-66
2023/08/10 02:59:16;;;;;;;;;;;;;;;;;;5023416;28;19925;-67
2023/08/10 03:01:45;;;;;;;;;;;;;;;;;;5025682;28;20434;-67
2023/08/10 03:04:12;;;;;;;;;;;;;;;;;;5021305;28;19925;-67
2023/08/10 03:06:39;;;;;;;;;;;;;;;;;;5023050;28;19940;-67
2023/08/10 03:09:06;;;;;;;;;;;;;;;;;;5030870;28;19960;-67
2023/08/10 03:11:33;;;;;;;;;;;;;;;;;;5030951;28;19995;-67
2023/08/10 03:14:00;;;;;;;;;;;;;;;;;;5029822;28;19925;-67
2023/08/10 03:16:27;;;;;;;;;;;;;;;;;;5030730;28;19932;-67
2023/08/10 03:18:54;;;;;;;;;;;;;;;;;;5018217;28;19925;-67
2023/08/10 03:21:21;;;;;;;;;;;;;;;;;;5028991;28;19925;-67
2023/08/10 03:23:48;;;;;;;;;;;;;;;;;;5016242;28;19925;-67
2023/08/10 03:26:15;;;;;;;;;;;;;;;;;;5030234;28;19925;-67
2023/08/10 03:28:42;;;;;;;;;;;;;;;;;;5030669;28;19925;-67
2023/08/10 03:31:09;;;;;;;;;;;;;;;;;;5030683;28;20320;-67
2023/08/10 03:33:36;;;;;;;;;;;;;;;;;;5023341;28;19929;-66
2023/08/10 03:36:03;;;;;;;;;;;;;;;;;;5027819;28;20380;-66
2023/08/10 03:38:30;;;;;;;;;;;;;;;;;;5030411;28;19932;-66
2023/08/10 03:40:57;;;;;;;;;;;;;;;;;;5030216;28;19925;-66
2023/08/10 03:43:24;;;;;;;;;;;;;;;;;;5027548;28;19983;-66
2023/08/10 03:45:51;;;;;;;;;;;;;;;;;;5029382;28;20497;-66
2023/08/10 03:48:19;;;;;;;;;;;;;;;;;;5027990;28;19929;-66
2023/08/10 03:50:46;;;;;;;;;;;;;;;;;;5024492;28;19948;-67
2023/08/10 03:53:13;;;;;;;;;;;;;;;;;;5027110;28;19925;-67
2023/08/10 03:55:40;;;;;;;;;;;;;;;;;;5022764;28;19925;-68
2023/08/10 03:58:08;;;;;;;;;;;;;;;;;;5029427;28;19926;-68
2023/08/10 04:00:35;;;;;;;;;;;;;;;;;;5024023;28;19925;-68
2023/08/10 04:03:02;;;;;;;;;;;;;;;;;;5028932;28;19929;-67
2023/08/10 04:05:30;;;;;;;;;;;;;;;;;;5028700;28;20384;-68
2023/08/10 04:07:57;;;;;;;;;;;;;;;;;;5032310;28;19983;-67
2023/08/10 04:10:24;;;;;;;;;;;;;;;;;;5032654;28;19925;-68
2023/08/10 04:12:51;;;;;;;;;;;;;;;;;;5032159;28;19931;-68
2023/08/10 04:15:19;;;;;;;;;;;;;;;;;;5032023;28;19932;-67
2023/08/10 04:17:46;;;;;;;;;;;;;;;;;;5032128;28;19925;-67
2023/08/10 04:20:14;;;;;;;;;;;;;;;;;;5033256;28;19925;-68
2023/08/10 04:22:41;;;;;;;;;;;;;;;;;;5032195;28;20004;-67
2023/08/10 04:25:08;;;;;;;;;;;;;;;;;;5030290;28;20308;-67
2023/08/10 04:27:35;;;;;;;;;;;;;;;;;;5032656;28;19925;-67
2023/08/10 04:30:04;;;;;;;;;;;;;;;;;;5033041;28;19929;-67
2023/08/10 04:32:31;;;;;;;;;;;;;;;;;;5031412;28;19963;-67
2023/08/10 04:34:58;;;;;;;;;;;;;;;;;;5030128;28;19925;-68
2023/08/10 04:37:26;;;;;;;;;;;;;;;;;;5032917;28;20067;-67
2023/08/10 04:39:53;;;;;;;;;;;;;;;;;;5033565;28;19925;-67
2023/08/10 04:42:20;;;;;;;;;;;;;;;;;;5031961;28;20461;-67
2023/08/10 04:44:47;;;;;;;;;;;;;;;;;;5032300;28;19975;-67
2023/08/10 04:47:14;;;;;;;;;;;;;;;;;;5041605;28;19976;-67
2023/08/10 04:49:41;;;;;;;;;;;;;;;;;;5029788;28;20385;-67
2023/08/10 04:52:08;;;;;;;;;;;;;;;;;;5030731;28;19925;-67
2023/08/10 04:54:35;;;;;;;;;;;;;;;;;;5032024;28;20324;-67
2023/08/10 04:57:02;;;;;;;;;;;;;;;;;;5018693;28;19957;-67
2023/08/10 04:59:29;;;;;;;;;;;;;;;;;;5031246;28;19925;-67
2023/08/10 05:01:56;;;;;;;;;;;;;;;;;;5032006;28;19925;-67
2023/08/10 05:04:24;;;;;;;;;;;;;;;;;;5030853;28;19925;-67
2023/08/10 05:06:51;;;;;;;;;;;;;;;;;;5032615;28;19991;-67
2023/08/10 05:09:18;;;;;;;;;;;;;;;;;;5029450;28;19932;-68
2023/08/10 05:11:45;;;;;;;;;;;;;;;;;;5032083;28;20446;-67
2023/08/10 05:14:12;;;;;;;;;;;;;;;;;;5031231;28;19925;-67
2023/08/10 05:16:39;;;;;;;;;;;;;;;;;;5032001;28;20005;-67
2023/08/10 05:19:06;;;;;;;;;;;;;;;;;;5030114;28;19929;-67
2023/08/10 05:21:33;;;;;;;;;;;;;;;;;;5031476;28;19929;-67
2023/08/10 05:24:00;;;;;;;;;;;;;;;;;;5030137;28;20042;-67
2023/08/10 05:26:28;;;;;;;;;;;;;;;;;;5032012;28;19932;-67
2023/08/10 05:28:55;;;;;;;;;;;;;;;;;;5031581;28;20430;-66
2023/08/10 05:31:22;;;;;;;;;;;;;;;;;;5030784;28;20009;-66
2023/08/10 05:33:49;;;;;;;;;;;;;;;;;;5028940;28;20288;-66
2023/08/10 05:36:16;;;;;;;;;;;;;;;;;;5031816;28;19957;-67
2023/08/10 05:38:43;;;;;;;;;;;;;;;;;;5030302;28;20439;-67
2023/08/10 05:41:10;;;;;;;;;;;;;;;;;;5030920;28;19925;-67
2023/08/10 05:43:37;;;;;;;;;;;;;;;;;;5024373;28;19929;-67
2023/08/10 05:46:04;;;;;;;;;;;;;;;;;;5013215;28;19933;-67
2023/08/10 05:48:31;;;;;;;;;;;;;;;;;;5012590;28;19957;-67
2023/08/10 05:50:58;;;;;;;;;;;;;;;;;;5029568;28;20083;-67
2023/08/10 05:53:26;;;;;;;;;;;;;;;;;;5030362;28;19925;-67
2023/08/10 05:55:53;;;;;;;;;;;;;;;;;;5030817;28;19925;-67
2023/08/10 05:58:20;;;;;;;;;;;;;;;;;;5030353;28;20012;-67
2023/08/10 06:00:48;;;;;;;;;;;;;;;;;;5031525;28;20384;-67
2023/08/10 06:03:16;;;;;;;;;;;;;;;;;;5025853;28;19991;-67
2023/08/10 06:05:43;;;;;;;;;;;;;;;;;;5027522;28;19934;-66
2023/08/10 06:08:10;;;;;;;;;;;;;;;;;;5029578;28;19933;-66
2023/08/10 06:10:37;;;;;;;;;;;;;;;;;;5027700;28;19925;-66
2023/08/10 06:13:04;;;;;;;;;;;;;;;;;;5029718;28;19972;-65
2023/08/10 06:15:31;;;;;;;;;;;;;;;;;;5030289;28;20328;-65
2023/08/10 06:17:58;;;;;;;;;;;;;;;;;;5028444;28;19925;-65
2023/08/10 06:20:26;;;;;;;;;;;;;;;;;;5024761;28;19925;-67
2023/08/10 06:22:54;;;;;;;;;;;;;;;;;;5029005;28;20273;-67
2023/08/10 06:25:22;;;;;;;;;;;;;;;;;;5029287;28;19928;-67
2023/08/10 06:27:49;;;;;;;;;;;;;;;;;;5029427;28;19948;-67
2023/08/10 06:30:16;;;;;;;;;;;;;;;;;;5028871;28;20679;-67
2023/08/10 06:32:44;;;;;;;;;;;;;;;;;;5029542;28;20442;-67
2023/08/10 06:35:10;;;;;;;;;;;;;;;;;;5026948;28;19929;-67
2023/08/10 06:37:38;;;;;;;;;;;;;;;;;;5022580;28;19967;-67
2023/08/10 06:40:08;;;;;;;;;;;;;;;;;;5028524;28;20546;-67
2023/08/10 06:42:35;;;;;;;;;;;;;;;;;;5028737;28;20008;-67
2023/08/10 06:45:03;;;;;;;;;;;;;;;;;;5029957;28;19947;-67
2023/08/10 06:47:30;;;;;;;;;;;;;;;;;;5025429;28;19960;-67
2023/08/10 06:49:57;;;;;;;;;;;;;;;;;;5028427;28;20047;-67
2023/08/10 06:52:25;;;;;;;;;;;;;;;;;;5027533;28;20285;-67
2023/08/10 06:54:53;;;;;;;;;;;;;;;;;;5024558;28;20003;-67
2023/08/10 06:57:20;;;;;;;;;;;;;;;;;;5029060;28;19996;-67
2023/08/10 06:59:47;;;;;;;;;;;;;;;;;;5029737;28;20427;-67
2023/08/10 07:02:14;;;;;;;;;;;;;;;;;;5014612;28;20031;-65
2023/08/10 07:04:43;;;;;;;;;;;;;;;;;;5028947;28;19933;-67
2023/08/10 07:07:10;;;;;;;;;;;;;;;;;;5024828;28;19925;-68
2023/08/10 07:09:37;;;;;;;;;;;;;;;;;;5028759;28;19932;-68
2023/08/10 07:12:04;;;;;;;;;;;;;;;;;;5026971;28;19925;-68
2023/08/10 07:14:31;;;;;;;;;;;;;;;;;;5017609;28;20376;-70
2023/08/10 07:16:58;;;;;;;;;;;;;;;;;;5026748;28;19925;-68
2023/08/10 07:19:25;;;;;;;;;;;;;;;;;;5027042;28;19925;-69
2023/08/10 07:21:55;;;;;;;;;;;;;;;;;;5027214;28;19929;-69
2023/08/10 07:24:23;;;;;;;;;;;;;;;;;;5025375;28;19991;-69
2023/08/10 07:26:50;;;;;;;;;;;;;;;;;;5029192;28;19928;-69
2023/08/10 07:29:17;;;;;;;;;;;;;;;;;;5019711;28;20299;-69
2023/08/10 07:31:44;;;;;;;;;;;;;;;;;;5028373;28;19929;-68
2023/08/10 07:34:11;;;;;;;;;;;;;;;;;;5024122;28;19925;-69
2023/08/10 07:36:38;;;;;;;;;;;;;;;;;;5021199;28;20344;-69
2023/08/10 07:39:05;;;;;;;;;;;;;;;;;;5022969;28;20644;-70
2023/08/10 07:41:32;;;;;;;;;;;;;;;;;;5024805;28;19929;-69
2023/08/10 07:43:59;;;;;;;;;;;;;;;;;;5027929;28;20411;-69
2023/08/10 07:46:27;;;;;;;;;;;;;;;;;;5026442;28;19925;-69
2023/08/10 07:48:54;;;;;;;;;;;;;;;;;;5030764;28;19925;-69
2023/08/10 07:51:21;;;;;;;;;;;;;;;;;;5024269;28;19968;-69
2023/08/10 07:53:48;;;;;;;;;;;;;;;;;;5025689;28;19925;-69
2023/08/10 07:56:15;;;;;;;;;;;;;;;;;;5030696;28;19929;-70
2023/08/10 07:58:42;;;;;;;;;;;;;;;;;;5031083;28;19929;-70
2023/08/10 08:01:09;;;;;;;;;;;;;;;;;;5025887;28;19925;-70
2023/08/10 08:03:36;;;;;;;;;;;;;;;;;;5025006;28;19929;-69
2023/08/10 08:06:03;;;;;;;;;;;;;;;;;;5021121;28;20023;-70
2023/08/10 08:08:30;;;;;;;;;;;;;;;;;;5029025;28;19979;-70
2023/08/10 08:10:57;;;;;;;;;;;;;;;;;;5031180;28;20014;-70
2023/08/10 08:13:24;;;;;;;;;;;;;;;;;;5023007;28;19979;-71
2023/08/10 08:15:51;;;;;;;;;;;;;;;;;;5024802;28;20026;-67
2023/08/10 08:18:17;;;;;;;;;;;;;;;;;;5028268;28;20369;-70
2023/08/10 08:20:44;;;;;;;;;;;;;;;;;;5031747;28;19995;-70
2023/08/10 08:23:11;;;;;;;;;;;;;;;;;;5031254;28;19940;-70
2023/08/10 08:25:38;;;;;;;;;;;;;;;;;;5028427;28;19925;-70
2023/08/10 08:28:05;;;;;;;;;;;;;;;;;;5020669;28;19925;-69
2023/08/10 08:30:32;;;;;;;;;;;;;;;;;;5026834;28;19987;-70
2023/08/10 08:32:59;;;;;;;;;;;;;;;;;;5028714;28;20354;-70
2023/08/10 08:35:26;;;;;;;;;;;;;;;;;;5034750;28;19929;-70
2023/08/10 08:37:57;;;;;;;;;;;;;;;;;;5024992;28;20043;-70
2023/08/10 08:40:24;;;;;;;;;;;;;;;;;;5028112;28;20016;-69
2023/08/10 08:42:51;;;;;;;;;;;;;;;;;;5031262;28;19932;-69
2023/08/10 08:45:18;;;;;;;;;;;;;;;;;;5029521;28;20407;-69
2023/08/10 08:47:45;;;;;;;;;;;;;;;;;;5027824;28;19933;-71
2023/08/10 08:50:12;;;;;;;;;;;;;;;;;;5029876;28;20368;-70
2023/08/10 08:52:39;;;;;;;;;;;;;;;;;;5030855;28;19941;-69
2023/08/10 08:55:06;;;;;;;;;;;;;;;;;;5027388;28;19979;-79
2023/08/10 08:57:33;;;;;;;;;;;;;;;;;;5026267;28;19940;-77
2023/08/10 09:00:01;;;;;;;;;;;;;;;;;;5021901;28;19997;-70
2023/08/10 09:02:28;;;;;;;;;;;;;;;;;;5019309;28;19925;-70
2023/08/10 09:04:59;;;;;;;;;;;;;;;;;;5024556;28;19988;-70
2023/08/10 09:07:26;;;;;;;;;;;;;;;;;;5025904;28;19925;-69
2023/08/10 09:09:53;;;;;;;;;;;;;;;;;;5029819;28;19933;-69
2023/08/10 09:12:20;;;;;;;;;;;;;;;;;;5028663;28;19933;-69
2023/08/10 09:14:47;;;;;;;;;;;;;;;;;;5030630;28;19964;-69
2023/08/10 09:17:14;;;;;;;;;;;;;;;;;;5024623;28;20020;-70
2023/08/10 09:19:42;;;;;;;;;;;;;;;;;;5029871;28;20370;-70
2023/08/10 09:22:09;;;;;;;;;;;;;;;;;;5028238;28;20343;-71
2023/08/10 09:24:36;;;;;;;;;;;;;;;;;;5031083;28;19925;-69
2023/08/10 09:27:03;;;;;;;;;;;;;;;;;;5030339;28;19925;-70
2023/08/10 09:29:30;;;;;;;;;;;;;;;;;;5029617;28;20396;-70
2023/08/10 09:31:58;;;;;;;;;;;;;;;;;;5030171;28;19926;-70
2023/08/10 09:34:25;;;;;;;;;;;;;;;;;;5030046;28;20015;-70
2023/08/10 09:36:52;;;;;;;;;;;;;;;;;;5023793;28;20547;-70
2023/08/10 09:39:19;;;;;;;;;;;;;;;;;;5024071;28;19983;-70
2023/08/10 09:41:46;;;;;;;;;;;;;;;;;;5023136;28;19932;-71
2023/08/10 09:44:14;;;;;;;;;;;;;;;;;;5020739;28;19925;-69
2023/08/10 09:46:41;;;;;;;;;;;;;;;;;;5028046;28;19932;-70
2023/08/10 09:49:08;;;;;;;;;;;;;;;;;;5034528;28;20507;-71
2023/08/10 09:51:35;;;;;;;;;;;;;;;;;;5026095;28;20352;-69
2023/08/10 09:54:02;;;;;;;;;;;;;;;;;;5024034;28;19925;-69
2023/08/10 09:56:29;;;;;;;;;;;;;;;;;;5032525;28;19932;-70
2023/08/10 09:58:56;;;;;;;;;;;;;;;;;;5027610;28;20392;-69
2023/08/10 10:01:23;;;;;;;;;;;;;;;;;;5026247;28;20327;-69
2023/08/10 10:03:50;;;;;;;;;;;;;;;;;;5027805;28;19933;-70
2023/08/10 10:06:17;;;;;;;;;;;;;;;;;;5015769;28;20320;-70
2023/08/10 10:08:44;;;;;;;;;;;;;;;;;;5028537;28;20384;-68
2023/08/10 10:11:13;;;;;;;;;;;;;;;;;;5030032;28;20373;-68
2023/08/10 10:13:40;;;;;;;;;;;;;;;;;;5028837;28;20437;-68
2023/08/10 10:16:07;;;;;;;;;;;;;;;;;;5020967;28;19932;-62
2023/08/10 10:18:35;;;;;;;;;;;;;;;;;;5021993;28;19925;-67
2023/08/10 10:21:02;;;;;;;;;;;;;;;;;;5024743;28;19999;-67
2023/08/10 10:23:29;;;;;;;;;;;;;;;;;;5023014;28;19925;-67
2023/08/10 10:25:56;;;;;;;;;;;;;;;;;;5023044;28;19925;-66
2023/08/10 10:28:23;;;;;;;;;;;;;;;;;;5025748;28;19925;-66
2023/08/10 10:30:51;;;;;;;;;;;;;;;;;;5025967;28;19936;-66
2023/08/10 10:33:18;;;;;;;;;;;;;;;;;;5019339;28;19925;-67
2023/08/10 10:35:45;;;;;;;;;;;;;;;;;;5022342;28;20027;-67
2023/08/10 10:38:12;;;;;;;;;;;;;;;;;;5020521;28;19971;-66
2023/08/10 10:40:39;;;;;;;;;;;;;;;;;;5025936;28;19929;-67
2023/08/10 10:43:06;;;;;;;;;;;;;;;;;;5028552;28;19998;-67
2023/08/10 10:45:33;;;;;;;;;;;;;;;;;;5033974;28;19924;-69
2023/08/10 10:48:00;;;;;;;;;;;;;;;;;;5027256;28;19925;-66
2023/08/10 10:50:27;;;;;;;;;;;;;;;;;;5028090;28;20423;-66
2023/08/10 10:52:55;;;;;;;;;;;;;;;;;;5015937;28;19933;-67
2023/08/10 10:55:22;;;;;;;;;;;;;;;;;;5017956;28;19929;-66
2023/08/10 10:57:49;;;;;;;;;;;;;;;;;;5026010;28;19929;-67
2023/08/10 11:00:16;;;;;;;;;;;;;;;;;;5028594;28;20396;-68
2023/08/10 11:02:43;;;;;;;;;;;;;;;;;;5027388;28;19925;-66
2023/08/10 11:05:10;;;;;;;;;;;;;;;;;;5029173;28;19929;-67
2023/08/10 11:07:37;;;;;;;;;;;;;;;;;;5027850;28;20292;-67
2023/08/10 11:10:04;;;;;;;;;;;;;;;;;;5022524;28;20126;-67
2023/08/10 11:12:31;;;;;;;;;;;;;;;;;;5028058;28;20324;-66
2023/08/10 11:14:59;;;;;;;;;;;;;;;;;;5032273;28;19925;-66
2023/08/10 11:17:26;;;;;;;;;;;;;;;;;;5031002;28;19925;-65
2023/08/10 11:19:54;;;;;;;;;;;;;;;;;;5031986;28;20016;-66
2023/08/10 11:22:21;;;;;;;;;;;;;;;;;;5025848;28;20106;-65
2023/08/10 11:24:50;;;;;;;;;;;;;;;;;;5019027;28;21129;-66
2023/08/10 11:27:17;;;;;;;;;;;;;;;;;;5020129;28;19936;-66
2023/08/10 11:29:44;;;;;;;;;;;;;;;;;;5028845;28;19999;-66
2023/08/10 11:32:11;;;;;;;;;;;;;;;;;;5027677;28;19929;-66
2023/08/10 11:34:38;;;;;;;;;;;;;;;;;;5029281;28;19925;-66
2023/08/10 11:37:06;;;;;;;;;;;;;;;;;;5031309;28;19925;-66
2023/08/10 11:39:33;;;;;;;;;;;;;;;;;;5026980;28;19933;-68
2023/08/10 11:42:00;;;;;;;;;;;;;;;;;;5040570;23;20004;-67
2023/08/10 11:44:27;;;;;;;;;;;;;;;;;;5031588;28;19986;-67
2023/08/10 11:46:56;;;;;;;;;;;;;;;;;;5031288;28;20008;-68
2023/08/10 11:49:23;;;;;;;;;;;;;;;;;;5023665;28;19987;-68
2023/08/10 11:51:50;;;;;;;;;;;;;;;;;;5031233;28;20281;-67
2023/08/10 11:54:17;;;;;;;;;;;;;;;;;;5022938;28;19936;-67
2023/08/10 11:56:45;;;;;;;;;;;;;;;;;;5027167;28;19992;-67
2023/08/10 11:59:14;;;;;;;;;;;;;;;;;;5030383;28;19972;-67
2023/08/10 12:01:41;;;;;;;;;;;;;;;;;;5035139;28;19925;-67
2023/08/10 12:04:08;;;;;;;;;;;;;;;;;;5038506;28;19929;-67
2023/08/10 12:06:35;;;;;;;;;;;;;;;;;;5024476;28;19926;-67
2023/08/10 12:09:02;;;;;;;;;;;;;;;;;;5031225;28;19925;-66
2023/08/10 12:11:29;;;;;;;;;;;;;;;;;;5028591;28;19929;-67
2023/08/10 12:13:56;;;;;;;;;;;;;;;;;;5032565;28;19974;-66
2023/08/10 12:16:23;;;;;;;;;;;;;;;;;;5032333;28;20403;-66
2023/08/10 12:18:50;;;;;;;;;;;;;;;;;;5029879;28;19984;-68
2023/08/10 12:21:17;;;;;;;;;;;;;;;;;;5031110;28;20004;-68
2023/08/10 12:23:44;;;;;;;;;;;;;;;;;;5029424;28;20309;-67
2023/08/10 12:26:13;;;;;;;;;;;;;;;;;;5026273;28;19944;-67
2023/08/10 12:28:40;;;;;;;;;;;;;;;;;;5031528;28;20667;-67
2023/08/10 12:31:07;;;;;;;;;;;;;;;;;;5030517;28;19925;-67
2023/08/10 12:33:34;;;;;;;;;;;;;;;;;;5032916;28;19925;-67
2023/08/10 12:36:01;;;;;;;;;;;;;;;;;;5032837;28;20020;-67
2023/08/10 12:38:28;;;;;;;;;;;;;;;;;;5030656;28;19931;-67
2023/08/10 12:40:55;;;;;;;;;;;;;;;;;;5025311;28;19936;-67
2023/08/10 12:43:22;;;;;;;;;;;;;;;;;;5023694;28;19931;-65
2023/08/10 12:45:49;;;;;;;;;;;;;;;;;;5032491;28;19932;-65
2023/08/10 12:48:16;;;;;;;;;;;;;;;;;;5030990;28;19991;-67
2023/08/10 12:50:43;;;;;;;;;;;;;;;;;;5030753;28;20385;-67
2023/08/10 12:53:10;;;;;;;;;;;;;;;;;;5030639;28;20007;-67
2023/08/10 12:55:37;;;;;;;;;;;;;;;;;;5031906;28;19925;-68
2023/08/10 12:58:04;;;;;;;;;;;;;;;;;;5028088;28;20344;-68
2023/08/10 13:00:31;;;;;;;;;;;;;;;;;;5030367;28;20392;-68
2023/08/10 13:02:58;;;;;;;;;;;;;;;;;;5029004;28;19975;-68
2023/08/10 13:05:25;;;;;;;;;;;;;;;;;;5028995;28;19972;-68
2023/08/10 13:07:52;;;;;;;;;;;;;;;;;;5030751;28;19971;-67
2023/08/10 13:10:22;;;;;;;;;;;;;;;;;;5023711;28;20622;-67
2023/08/10 13:12:51;;;;;;;;;;;;;;;;;;5026592;28;20392;-67
2023/08/10 13:15:18;;;;;;;;;;;;;;;;;;5024980;28;19932;-67
2023/08/10 13:17:45;;;;;;;;;;;;;;;;;;5032856;28;20715;-67
2023/08/10 13:20:12;;;;;;;;;;;;;;;;;;5021664;28;19932;-67
2023/08/10 13:22:40;;;;;;;;;;;;;;;;;;5029557;28;19929;-67
2023/08/10 13:25:07;;;;;;;;;;;;;;;;;;5031437;28;19933;-67
2023/08/10 13:27:34;;;;;;;;;;;;;;;;;;5032410;28;19926;-67
2023/08/10 13:30:01;;;;;;;;;;;;;;;;;;5032014;28;19925;-67
2023/08/10 13:32:28;;;;;;;;;;;;;;;;;;5029868;28;20440;-67
2023/08/10 13:34:55;;;;;;;;;;;;;;;;;;5033098;28;19933;-67
2023/08/10 13:37:22;;;;;;;;;;;;;;;;;;5028070;28;19925;-67
2023/08/10 13:39:49;;;;;;;;;;;;;;;;;;5030495;28;19929;-67
2023/08/10 13:42:16;;;;;;;;;;;;;;;;;;5023002;28;20559;-67
2023/08/10 13:44:43;;;;;;;;;;;;;;;;;;5030865;28;19925;-67
2023/08/10 13:47:10;;;;;;;;;;;;;;;;;;5030992;28;19929;-67
2023/08/10 13:49:37;;;;;;;;;;;;;;;;;;5028310;28;19926;-67
2023/08/10 13:52:04;;;;;;;;;;;;;;;;;;5035776;28;19932;-67
2023/08/10 13:54:31;;;;;;;;;;;;;;;;;;5030622;28;20344;-67
2023/08/10 13:56:58;;;;;;;;;;;;;;;;;;5031705;28;19979;-67
2023/08/10 13:59:25;;;;;;;;;;;;;;;;;;5014098;28;19941;-68
2023/08/10 14:01:52;;;;;;;;;;;;;;;;;;5016578;28;19932;-68
2023/08/10 14:04:19;;;;;;;;;;;;;;;;;;5026336;28;19969;-68
2023/08/10 14:06:46;;;;;;;;;;;;;;;;;;5019707;28;19929;-68
2023/08/10 14:09:13;;;;;;;;;;;;;;;;;;5017367;28;19925;-68
2023/08/10 14:11:43;;;;;;;;;;;;;;;;;;5023231;28;19971;-68
2023/08/10 14:14:10;;;;;;;;;;;;;;;;;;5022781;28;20035;-68
2023/08/10 14:16:37;;;;;;;;;;;;;;;;;;5026768;28;20427;-69
2023/08/10 14:19:04;;;;;;;;;;;;;;;;;;5025362;28;19929;-68
2023/08/10 14:21:31;;;;;;;;;;;;;;;;;;5026580;28;20443;-67
2023/08/10 14:24:01;;;;;;;;;;;;;;;;;;5028019;28;19925;-67
2023/08/10 14:26:28;;;;;;;;;;;;;;;;;;5026492;28;19955;-67
2023/08/10 14:28:55;;;;;;;;;;;;;;;;;;5025677;28;20069;-67
2023/08/10 14:31:22;;;;;;;;;;;;;;;;;;5018290;28;19937;-67
2023/08/10 14:33:49;;;;;;;;;;;;;;;;;;5017081;28;20014;-68
2023/08/10 14:36:16;;;;;;;;;;;;;;;;;;5025986;28;19929;-67
2023/08/10 14:38:43;;;;;;;;;;;;;;;;;;5024461;28;20293;-67
2023/08/10 14:41:10;;;;;;;;;;;;;;;;;;5018671;28;19972;-66
2023/08/10 14:43:37;;;;;;;;;;;;;;;;;;5023614;28;19937;-67
2023/08/10 14:46:04;;;;;;;;;;;;;;;;;;5028184;28;19980;-67
2023/08/10 14:48:31;;;;;;;;;;;;;;;;;;5021868;28;19976;-68
2023/08/10 14:50:58;;;;;;;;;;;;;;;;;;5013826;28;19925;-68
2023/08/10 14:53:25;;;;;;;;;;;;;;;;;;5022161;28;19933;-68
2023/08/10 14:55:52;;;;;;;;;;;;;;;;;;5028211;28;19925;-69
2023/08/10 14:58:19;;;;;;;;;;;;;;;;;;5027302;28;19925;-68
2023/08/10 15:00:47;;;;;;;;;;;;;;;;;;5028013;28;19936;-69
2023/08/10 15:03:14;;;;;;;;;;;;;;;;;;5027893;28;19929;-68
2023/08/10 15:05:41;;;;;;;;;;;;;;;;;;5021186;28;19936;-69
2023/08/10 15:08:08;;;;;;;;;;;;;;;;;;5025182;28;20335;-69
2023/08/10 15:10:35;;;;;;;;;;;;;;;;;;5023353;28;20761;-69
2023/08/10 15:13:03;;;;;;;;;;;;;;;;;;5019110;28;20458;-69
2023/08/10 15:15:31;;;;;;;;;;;;;;;;;;5007128;28;20004;-68
2023/08/10 15:17:58;;;;;;;;;;;;;;;;;;5021996;28;19925;-68
2023/08/10 15:20:26;;;;;;;;;;;;;;;;;;5023674;28;19987;-69
2023/08/10 15:22:53;;;;;;;;;;;;;;;;;;5029471;28;19925;-69
2023/08/10 15:25:21;;;;;;;;;;;;;;;;;;5027478;28;20434;-68
2023/08/10 15:27:48;;;;;;;;;;;;;;;;;;5019182;28;19936;-68
2023/08/10 15:30:15;;;;;;;;;;;;;;;;;;5018342;28;20540;-69
2023/08/10 15:32:42;;;;;;;;;;;;;;;;;;5024011;28;19933;-68
2023/08/10 15:35:09;;;;;;;;;;;;;;;;;;5020537;28;20260;-68
2023/08/10 15:37:36;;;;;;;;;;;;;;;;;;5022493;28;20024;-68
2023/08/10 15:40:04;;;;;;;;;;;;;;;;;;5024779;28;19964;-68
2023/08/10 15:42:31;;;;;;;;;;;;;;;;;;5023285;28;19940;-68
2023/08/10 15:44:58;;;;;;;;;;;;;;;;;;5026853;28;19925;-68
2023/08/10 15:47:25;;;;;;;;;;;;;;;;;;5026484;28;19932;-69
2023/08/10 15:49:52;;;;;;;;;;;;;;;;;;5024654;28;19929;-68
2023/08/10 15:52:19;;;;;;;;;;;;;;;;;;5022004;28;19926;-68
2023/08/10 15:54:46;;;;;;;;;;;;;;;;;;5020779;28;19929;-68
2023/08/10 15:57:13;;;;;;;;;;;;;;;;;;5023260;28;19929;-68
2023/08/10 15:59:40;;;;;;;;;;;;;;;;;;5018965;28;19933;-68
2023/08/10 16:02:08;;;;;;;;;;;;;;;;;;5030126;28;19925;-68
2023/08/10 16:04:35;;;;;;;;;;;;;;;;;;5031094;28;19931;-69
2023/08/10 16:07:04;;;;;;;;;;;;;;;;;;5030348;28;19925;-68
2023/08/10 16:09:31;;;;;;;;;;;;;;;;;;5030842;28;19933;-68
2023/08/10 16:11:58;;;;;;;;;;;;;;;;;;5030077;28;19963;-69
2023/08/10 16:14:25;;;;;;;;;;;;;;;;;;5023603;28;19933;-68
2023/08/10 16:16:52;;;;;;;;;;;;;;;;;;5032024;28;19976;-68
2023/08/10 16:19:19;;;;;;;;;;;;;;;;;;5026448;28;20031;-68
2023/08/10 16:21:46;;;;;;;;;;;;;;;;;;5029468;28;19925;-68
2023/08/10 16:24:13;;;;;;;;;;;;;;;;;;5022754;28;19932;-68
2023/08/10 16:26:40;;;;;;;;;;;;;;;;;;5027670;28;19979;-68
2023/08/10 16:29:08;;;;;;;;;;;;;;;;;;5025112;28;20336;-68
2023/08/10 16:31:35;;;;;;;;;;;;;;;;;;5020848;28;19964;-68
2023/08/10 16:34:03;;;;;;;;;;;;;;;;;;5026993;28;19925;-68
2023/08/10 16:36:30;;;;;;;;;;;;;;;;;;5023484;28;20142;-68
2023/08/10 16:38:57;;;;;;;;;;;;;;;;;;5029455;28;19933;-68
2023/08/10 16:41:24;;;;;;;;;;;;;;;;;;5025391;28;20016;-68
2023/08/10 16:43:51;;;;;;;;;;;;;;;;;;5028231;28;20377;-68